Time;durP1;ratioP1;P1;durP2;ratioP2;P2;SDS_P1;SDS_P2;PMS_P1;PMS_P2;Temp;Humidity;BMP_temperature;BMP_pressure;BME280_temperature;BME280_humidity;BME280_pressure;Samples;Min_cycle;Max_cycle;Signal;HPM_P1;HPM_P2
2022/03/22 00:01:14;;;;;;;5.97;4.30;;;22.60;40.00;;;;;;4993963;28;20053;-62
2022/03/22 00:03:40;;;;;;;6.10;4.47;;;22.60;40.00;;;;;;5002550;28;20022;-66
2022/03/22 00:06:07;;;;;;;6.65;4.47;;;22.60;40.00;;;;;;5003193;28;20634;-65
2022/03/22 00:08:33;;;;;;;6.55;4.18;;;22.60;40.00;;;;;;5003847;28;20029;-64
2022/03/22 00:10:59;;;;;;;6.28;4.30;;;22.60;40.00;;;;;;5005163;28;20615;-62
2022/03/22 00:13:28;;;;;;;6.28;4.20;;;22.60;40.00;;;;;;5003200;28;20382;-64
2022/03/22 00:15:55;;;;;;;5.15;3.85;;;22.60;40.00;;;;;;5003715;28;20062;-65
2022/03/22 00:18:25;;;;;;;5.88;3.92;;;22.50;39.90;;;;;;5001338;28;20191;-65
2022/03/22 00:20:50;;;;;;;6.15;4.13;;;22.50;40.00;;;;;;5003711;28;20022;-61
2022/03/22 00:23:19;;;;;;;5.55;3.97;;;22.50;40.00;;;;;;5004249;28;20454;-61
2022/03/22 00:25:45;;;;;;;6.50;4.18;;;22.50;40.00;;;;;;5001824;28;21254;-66
2022/03/22 00:28:10;;;;;;;6.20;4.40;;;22.50;40.00;;;;;;5001932;28;20477;-65
2022/03/22 00:30:39;;;;;;;6.22;3.95;;;22.50;40.00;;;;;;4999832;28;20445;-66
2022/03/22 00:33:07;;;;;;;5.40;4.13;;;22.50;40.00;;;;;;5002639;28;20034;-62
2022/03/22 00:35:37;;;;;;;6.63;4.13;;;22.50;40.00;;;;;;5019265;28;20062;-65
2022/03/22 00:38:14;;;;;;;6.03;3.92;;;22.40;40.00;;;;;;4998399;28;20095;-67
2022/03/22 00:40:40;;;;;;;5.97;3.80;;;22.50;40.00;;;;;;5003010;28;20444;-66
2022/03/22 00:43:06;;;;;;;6.00;3.83;;;22.40;40.00;;;;;;5001560;28;20037;-65
2022/03/22 00:45:33;;;;;;;5.68;3.92;;;22.40;40.00;;;;;;5005029;28;20041;-67
2022/03/22 00:48:00;;;;;;;4.97;3.65;;;22.40;40.00;;;;;;5001403;28;20030;-66
2022/03/22 00:50:28;;;;;;;5.03;3.75;;;22.40;40.00;;;;;;5001564;28;20517;-62
2022/03/22 00:52:56;;;;;;;5.60;3.90;;;22.40;40.00;;;;;;5002101;28;20025;-66
2022/03/22 00:55:23;;;;;;;5.20;4.00;;;22.40;40.00;;;;;;5001270;28;20084;-65
2022/03/22 00:57:51;;;;;;;5.65;4.00;;;22.40;40.00;;;;;;5001551;28;20033;-67
2022/03/22 01:00:17;;;;;;;6.05;3.88;;;22.40;40.00;;;;;;5001659;28;20033;-66
2022/03/22 01:02:54;;;;;;;5.20;3.70;;;22.30;40.00;;;;;;5005224;28;20100;-65
2022/03/22 01:05:24;;;;;;;5.15;3.70;;;22.30;40.00;;;;;;5001023;28;20504;-67
2022/03/22 01:07:57;;;;;;;5.88;3.83;;;22.30;40.00;;;;;;5004822;28;20084;-61
2022/03/22 01:10:24;;;;;;;5.80;3.80;;;22.30;40.00;;;;;;4998648;28;20104;-66
2022/03/22 01:12:50;;;;;;;4.47;3.38;;;22.30;40.00;;;;;;5001089;28;20459;-66
2022/03/22 01:15:34;;;;;;;5.20;3.35;;;22.30;40.00;;;;;;5001336;28;20030;-64
2022/03/22 01:18:07;;;;;;;5.43;3.65;;;22.30;40.00;;;;;;5004305;28;20542;-62
2022/03/22 01:20:35;;;;;;;5.90;3.80;;;22.30;40.10;;;;;;5000199;28;20037;-67
2022/03/22 01:23:02;;;;;;;4.32;3.40;;;22.20;40.00;;;;;;5002053;28;20030;-61
2022/03/22 01:25:30;;;;;;;5.20;3.50;;;22.20;40.00;;;;;;5002314;28;20029;-65
2022/03/22 01:27:56;;;;;;;5.03;3.60;;;22.20;40.10;;;;;;5003525;28;20034;-66
2022/03/22 01:30:23;;;;;;;5.55;3.50;;;22.20;40.00;;;;;;5000855;28;20037;-61
2022/03/22 01:32:50;;;;;;;4.70;3.60;;;22.20;40.00;;;;;;5002523;28;20040;-65
2022/03/22 01:35:17;;;;;;;4.78;3.30;;;22.20;40.00;;;;;;5003111;28;20030;-67
2022/03/22 01:37:44;;;;;;;4.70;3.40;;;22.20;40.00;;;;;;5002669;28;20172;-67
2022/03/22 01:40:11;;;;;;;5.45;3.38;;;22.20;40.00;;;;;;4999549;28;20026;-66
2022/03/22 01:42:38;;;;;;;6.32;3.83;;;22.10;40.00;;;;;;5002125;28;20108;-65
2022/03/22 01:45:04;;;;;;;5.13;3.25;;;22.10;40.00;;;;;;5001436;28;20037;-65
2022/03/22 01:47:30;;;;;;;5.85;3.33;;;22.10;40.00;;;;;;5001319;28;20461;-65
2022/03/22 01:49:56;;;;;;;5.57;3.63;;;22.10;40.00;;;;;;5001404;28;20033;-64
2022/03/22 01:52:24;;;;;;;5.60;3.78;;;22.10;40.00;;;;;;5003079;28;20029;-66
2022/03/22 01:54:51;;;;;;;4.93;3.42;;;22.10;40.00;;;;;;5001167;28;20394;-65
2022/03/22 01:57:18;;;;;;;4.25;3.13;;;22.10;40.00;;;;;;5002025;28;20103;-67
2022/03/22 01:59:44;;;;;;;4.63;3.30;;;22.10;40.00;;;;;;5000991;28;20030;-62
2022/03/22 02:07:41;;;;;;;4.72;3.40;;;22.00;39.90;;;;;;5005747;28;20095;-65
2022/03/22 02:10:07;;;;;;;5.38;3.22;;;22.00;40.00;;;;;;5005073;28;20022;-62
2022/03/22 02:12:33;;;;;;;4.22;2.95;;;22.00;40.00;;;;;;5019720;28;20064;-65
2022/03/22 02:14:58;;;;;;;4.35;3.38;;;22.00;40.00;;;;;;5006683;28;20506;-67
2022/03/22 02:17:24;;;;;;;5.10;3.17;;;22.00;40.00;;;;;;4997988;28;20552;-61
2022/03/22 02:19:50;;;;;;;4.32;3.08;;;22.00;40.00;;;;;;5004266;28;20089;-64
2022/03/22 02:22:18;;;;;;;4.15;3.10;;;22.00;40.00;;;;;;5005266;28;20040;-65
2022/03/22 02:24:43;;;;;;;5.43;3.53;;;22.00;40.00;;;;;;5004257;28;20061;-64
2022/03/22 02:27:09;;;;;;;3.70;2.70;;;22.00;40.00;;;;;;5006195;28;20648;-65
2022/03/22 02:29:36;;;;;;;4.25;3.10;;;21.90;40.00;;;;;;5004244;28;20030;-66
2022/03/22 02:32:07;;;;;;;3.90;2.75;;;21.90;40.00;;;;;;5004900;28;20038;-62
2022/03/22 02:34:39;;;;;;;4.30;2.70;;;21.90;40.00;;;;;;5005044;28;20049;-67
2022/03/22 02:37:05;;;;;;;4.00;3.00;;;22.00;40.00;;;;;;5004296;28;20121;-63
2022/03/22 02:39:32;;;;;;;5.03;3.10;;;21.90;40.00;;;;;;5004304;28;20152;-66
2022/03/22 02:41:57;;;;;;;3.95;2.90;;;21.90;40.00;;;;;;5003633;28;20030;-67
2022/03/22 02:44:23;;;;;;;4.30;3.20;;;21.90;40.00;;;;;;5003155;28;20014;-64
2022/03/22 02:46:48;;;;;;;5.25;3.17;;;21.90;40.00;;;;;;5004608;28;20076;-65
2022/03/22 02:49:14;;;;;;;4.10;2.70;;;21.90;40.00;;;;;;5005575;28;20044;-65
2022/03/22 02:51:40;;;;;;;4.35;2.88;;;21.90;40.00;;;;;;5003157;28;20034;-65
2022/03/22 02:54:07;;;;;;;3.85;2.63;;;21.90;40.00;;;;;;5001955;28;20037;-65
2022/03/22 02:56:33;;;;;;;3.83;2.85;;;21.80;40.00;;;;;;5005090;28;20042;-66
2022/03/22 02:58:59;;;;;;;4.10;2.70;;;21.90;40.10;;;;;;5004908;28;20033;-67
2022/03/22 03:01:25;;;;;;;3.83;2.60;;;21.80;40.00;;;;;;5002285;28;20133;-66
2022/03/22 03:03:50;;;;;;;3.80;2.72;;;21.80;40.00;;;;;;5005066;28;20502;-62
2022/03/22 03:06:16;;;;;;;3.78;2.88;;;21.80;40.00;;;;;;5006503;28;20099;-65
2022/03/22 03:08:42;;;;;;;4.05;2.75;;;21.80;40.00;;;;;;5002894;28;20040;-64
2022/03/22 03:11:08;;;;;;;3.55;2.60;;;21.80;40.00;;;;;;5005159;28;20022;-65
2022/03/22 03:16:18;;;;;;;3.65;2.70;;;21.80;40.00;;;;;;5003508;28;20061;-61
2022/03/22 03:18:44;;;;;;;3.92;2.53;;;21.80;40.10;;;;;;5005153;28;20018;-62
2022/03/22 03:21:10;;;;;;;4.00;2.65;;;21.80;40.00;;;;;;5006211;28;20545;-65
2022/03/22 03:23:35;;;;;;;3.35;2.50;;;21.70;40.00;;;;;;5015604;28;20038;-63
2022/03/22 03:26:01;;;;;;;4.43;2.65;;;21.70;40.00;;;;;;5001635;28;20443;-65
2022/03/22 03:28:26;;;;;;;4.20;2.85;;;21.70;40.10;;;;;;5002694;28;20026;-65
2022/03/22 03:30:52;;;;;;;3.30;2.40;;;21.70;40.50;;;;;;5003378;28;20038;-61
2022/03/22 03:33:17;;;;;;;3.38;2.50;;;21.70;40.00;;;;;;5003405;28;20431;-66
2022/03/22 03:35:43;;;;;;;3.00;2.20;;;21.70;40.00;;;;;;5004169;28;20057;-61
2022/03/22 03:38:09;;;;;;;4.07;3.03;;;21.70;40.10;;;;;;5004660;28;20029;-61
2022/03/22 03:43:19;;;;;;;3.40;2.40;;;21.70;40.10;;;;;;5003173;28;20037;-64
2022/03/22 03:48:28;;;;;;;3.63;2.53;;;21.70;40.10;;;;;;5005317;28;20053;-65
2022/03/22 03:50:54;;;;;;;3.45;2.47;;;21.60;40.10;;;;;;4999710;28;20033;-66
2022/03/22 03:53:19;;;;;;;3.45;2.35;;;21.60;40.10;;;;;;5008355;28;20029;-65
2022/03/22 03:55:45;;;;;;;3.50;2.50;;;21.60;40.10;;;;;;5003479;28;20149;-62
2022/03/22 03:58:11;;;;;;;3.33;2.40;;;21.60;40.10;;;;;;5004396;28;20025;-66
2022/03/22 04:00:36;;;;;;;3.47;2.40;;;21.60;40.10;;;;;;5002069;28;20964;-65
2022/03/22 04:03:02;;;;;;;3.53;2.38;;;21.60;40.10;;;;;;5003143;28;20207;-66
2022/03/22 04:05:27;;;;;;;3.38;2.47;;;21.60;40.10;;;;;;5002023;28;20042;-65
2022/03/22 04:07:53;;;;;;;3.13;2.42;;;21.60;40.10;;;;;;5002551;28;20076;-66
2022/03/22 04:10:19;;;;;;;3.42;2.60;;;21.60;40.10;;;;;;5002373;28;20033;-65
2022/03/22 04:12:44;;;;;;;3.65;2.40;;;21.60;40.10;;;;;;5000564;28;20163;-65
2022/03/22 04:15:10;;;;;;;3.75;2.50;;;21.50;40.10;;;;;;5002274;28;20030;-66
2022/03/22 04:17:38;;;;;;;3.20;2.35;;;21.60;40.20;;;;;;5004801;28;20033;-64
2022/03/22 04:20:04;;;;;;;3.67;2.53;;;21.60;40.10;;;;;;5005612;28;20030;-65
2022/03/22 04:22:30;;;;;;;3.33;2.00;;;21.50;40.10;;;;;;5003404;28;20042;-66
2022/03/22 04:24:55;;;;;;;3.95;2.40;;;21.50;40.10;;;;;;5000001;28;20510;-65
2022/03/22 04:32:49;;;;;;;3.45;2.40;;;21.50;40.20;;;;;;4999944;28;20573;-62
2022/03/22 04:35:18;;;;;;;3.53;2.63;;;21.50;40.20;;;;;;5002534;28;20375;-65
2022/03/22 04:37:49;;;;;;;3.17;2.20;;;21.50;40.20;;;;;;5000651;28;20030;-64
2022/03/22 04:40:15;;;;;;;3.22;2.33;;;21.50;40.20;;;;;;5001989;28;20030;-65
2022/03/22 04:42:42;;;;;;;3.50;2.30;;;21.50;40.20;;;;;;5000753;28;20434;-60
2022/03/22 04:45:09;;;;;;;3.60;2.40;;;21.50;40.20;;;;;;5002781;28;20026;-65
2022/03/22 04:47:35;;;;;;;2.97;2.25;;;21.50;40.30;;;;;;5002231;28;20061;-63
2022/03/22 04:50:05;;;;;;;2.97;2.30;;;21.50;40.30;;;;;;4998093;28;20038;-60
2022/03/22 04:57:59;;;;;;;3.00;2.08;;;21.50;40.40;;;;;;4997529;28;20044;-65
2022/03/22 05:00:24;;;;;;;3.45;2.25;;;21.50;40.30;;;;;;5000003;28;20042;-66
2022/03/22 05:02:50;;;;;;;3.83;2.47;;;21.50;40.30;;;;;;5002070;28;20022;-65
2022/03/22 05:06:25;;;;;;;3.47;2.30;;;21.50;40.40;;;;;;4998830;28;20041;-65
2022/03/22 05:08:01;;;;;;;3.75;2.33;;;21.50;40.40;;;;;;4998785;28;20100;-61
2022/03/22 05:10:27;;;;;;;3.70;2.33;;;21.40;40.30;;;;;;5000203;28;20033;-65
2022/03/22 05:12:53;;;;;;;3.90;2.40;;;21.50;40.40;;;;;;4996962;28;21458;-66
2022/03/22 05:15:18;;;;;;;2.75;2.10;;;21.40;40.30;;;;;;4999552;28;20037;-66
2022/03/22 05:17:44;;;;;;;3.35;2.25;;;21.50;40.30;;;;;;5000991;28;20037;-65
2022/03/22 05:20:10;;;;;;;3.95;2.40;;;21.50;40.40;;;;;;5001821;28;20029;-66
2022/03/22 05:22:37;;;;;;;3.13;2.10;;;21.50;40.30;;;;;;5002189;28;20060;-65
2022/03/22 05:25:03;;;;;;;2.85;2.22;;;21.50;40.40;;;;;;5002627;28;20029;-66
2022/03/22 05:27:29;;;;;;;3.78;2.40;;;21.40;40.30;;;;;;5000351;28;20689;-65
2022/03/22 05:29:54;;;;;;;3.53;2.20;;;21.50;40.40;;;;;;5001345;28;20853;-65
2022/03/22 05:32:20;;;;;;;3.17;2.20;;;21.50;40.30;;;;;;4998143;28;20125;-65
2022/03/22 05:34:45;;;;;;;4.57;2.05;;;21.40;40.30;;;;;;5002452;28;20033;-64
2022/03/22 05:37:13;;;;;;;2.95;2.10;;;21.40;40.30;;;;;;4998698;28;20151;-65
2022/03/22 05:39:39;;;;;;;2.88;2.08;;;21.40;40.30;;;;;;5001391;28;20049;-65
2022/03/22 05:42:05;;;;;;;3.10;2.10;;;21.40;40.30;;;;;;4997968;28;20030;-65
2022/03/22 05:44:30;;;;;;;4.00;2.20;;;21.40;40.30;;;;;;4997984;28;20136;-65
2022/03/22 05:46:57;;;;;;;3.33;2.20;;;21.50;40.40;;;;;;4999061;28;20038;-65
2022/03/22 05:49:22;;;;;;;3.58;2.25;;;21.40;40.30;;;;;;5003414;28;20036;-62
2022/03/22 05:51:48;;;;;;;3.85;2.33;;;21.40;40.40;;;;;;4996061;28;20033;-65
2022/03/22 05:54:14;;;;;;;3.28;2.05;;;21.40;40.40;;;;;;4998159;28;20115;-61
2022/03/22 05:56:40;;;;;;;4.10;2.05;;;21.40;40.40;;;;;;5000240;28;20234;-61
2022/03/22 05:59:06;;;;;;;3.05;2.10;;;21.40;40.40;;;;;;5002027;28;20026;-66
2022/03/22 06:01:31;;;;;;;3.53;2.35;;;21.40;40.40;;;;;;5000695;28;20057;-65
2022/03/22 06:03:57;;;;;;;3.40;2.30;;;21.40;40.40;;;;;;4996285;28;20605;-65
2022/03/22 06:06:23;;;;;;;3.13;2.13;;;21.40;40.40;;;;;;4999150;28;20106;-63
2022/03/22 06:08:50;;;;;;;3.00;2.03;;;21.40;40.40;;;;;;5001547;28;20212;-65
2022/03/22 06:11:17;;;;;;;3.40;2.05;;;21.40;40.40;;;;;;4996697;28;20063;-66
2022/03/22 06:13:42;;;;;;;2.95;1.90;;;21.40;40.40;;;;;;4999870;28;20434;-66
2022/03/22 06:16:08;;;;;;;2.75;1.80;;;21.40;40.50;;;;;;5000120;28;20088;-66
2022/03/22 06:18:34;;;;;;;2.85;2.00;;;21.40;40.50;;;;;;5000324;28;20110;-65
2022/03/22 06:20:59;;;;;;;3.25;2.10;;;21.40;40.50;;;;;;5000436;28;20585;-65
2022/03/22 06:23:25;;;;;;;2.63;1.83;;;21.40;40.50;;;;;;4998941;28;20144;-65
2022/03/22 06:25:51;;;;;;;3.20;2.00;;;21.40;40.50;;;;;;5001873;28;20298;-66
2022/03/22 06:28:18;;;;;;;3.42;2.10;;;21.40;40.40;;;;;;5000600;28;20056;-65
2022/03/22 06:30:44;;;;;;;3.22;1.98;;;21.40;40.40;;;;;;4999825;28;20113;-65
2022/03/22 06:33:19;;;;;;;4.22;2.25;;;21.40;40.50;;;;;;5001023;28;20478;-66
2022/03/22 06:35:46;;;;;;;3.65;2.40;;;21.40;40.40;;;;;;4999264;28;20029;-66
2022/03/22 06:38:11;;;;;;;6.35;2.83;;;21.40;40.40;;;;;;5009815;28;20029;-66
2022/03/22 06:40:40;;;;;;;6.05;3.10;;;21.40;40.50;;;;;;5008614;28;20041;-66
2022/03/22 06:43:08;;;;;;;5.88;3.15;;;21.40;40.60;;;;;;5012537;28;20022;-66
2022/03/22 06:45:34;;;;;;;6.45;3.67;;;21.50;40.60;;;;;;5011965;28;20030;-64
2022/03/22 06:48:00;;;;;;;6.43;3.80;;;21.50;40.60;;;;;;5009436;28;20229;-65
2022/03/22 06:50:26;;;;;;;7.20;3.83;;;21.60;40.50;;;;;;5015996;28;20111;-65
2022/03/22 06:52:52;;;;;;;6.22;3.17;;;21.70;40.30;;;;;;5012526;28;20448;-63
2022/03/22 06:55:22;;;;;;;7.80;3.17;;;21.80;40.30;;;;;;5033541;28;20037;-65
2022/03/22 06:57:48;;;;;;;;;;;21.90;40.30;;;;;;5017360;28;20415;-66
2022/03/22 07:00:18;;;;;;;5.40;3.30;;;22.00;40.20;;;;;;5013932;28;19936;-65
2022/03/22 07:02:44;;;;;;;5.78;3.08;;;22.00;40.00;;;;;;5015923;28;20010;-66
2022/03/22 07:05:11;;;;;;;5.22;3.30;;;22.00;39.90;;;;;;5013979;28;20145;-65
2022/03/22 07:07:38;;;;;;;6.00;3.00;;;22.10;40.00;;;;;;5007592;28;20026;-66
2022/03/22 07:10:09;;;;;;;5.00;3.05;;;22.00;39.90;;;;;;4999518;28;20165;-65
2022/03/22 07:12:51;;;;;;;5.35;2.80;;;22.10;40.00;;;;;;4999588;28;20045;-65
2022/03/22 07:15:31;;;;;;;4.93;2.55;;;22.10;40.60;;;;;;4999771;28;20462;-66
2022/03/22 07:18:00;;;;;;;5.95;2.90;;;22.10;40.10;;;;;;5002568;28;20209;-63
2022/03/22 07:20:26;;;;;;;4.82;2.80;;;22.10;40.00;;;;;;5003266;28;20034;-66
2022/03/22 07:22:52;;;;;;;6.00;3.10;;;22.10;40.00;;;;;;5004650;28;20036;-65
2022/03/22 07:25:19;;;;;;;5.38;2.70;;;22.10;40.00;;;;;;4999922;28;20030;-66
2022/03/22 07:27:44;;;;;;;5.45;3.03;;;22.20;40.00;;;;;;5001508;28;20052;-62
2022/03/22 07:30:11;;;;;;;5.97;3.00;;;22.20;40.00;;;;;;4999534;28;20026;-65
2022/03/22 07:32:40;;;;;;;4.80;2.80;;;22.20;40.00;;;;;;5003862;28;21592;-66
2022/03/22 07:35:07;;;;;;;5.22;2.95;;;22.20;39.90;;;;;;4999707;28;20039;-65
2022/03/22 07:37:34;;;;;;;5.57;2.75;;;22.20;39.90;;;;;;5003217;28;20029;-66
2022/03/22 07:40:01;;;;;;;5.35;3.03;;;22.20;39.90;;;;;;5003678;28;20025;-65
2022/03/22 07:42:28;;;;;;;6.32;2.90;;;22.30;39.90;;;;;;5003188;28;20350;-65
2022/03/22 07:44:59;;;;;;;5.05;3.30;;;22.30;39.90;;;;;;5001392;28;20026;-65
2022/03/22 07:47:24;;;;;;;5.63;2.92;;;22.30;39.90;;;;;;5002826;28;20109;-63
2022/03/22 07:55:20;;;;;;;5.70;3.10;;;22.30;39.80;;;;;;4999268;28;20517;-66
2022/03/22 07:57:46;;;;;;;4.95;2.70;;;22.40;39.90;;;;;;4997972;28;20022;-65
2022/03/22 08:00:13;;;;;;;5.22;3.25;;;22.40;39.80;;;;;;5002818;28;20600;-65
2022/03/22 08:02:50;;;;;;;4.75;2.95;;;22.40;39.80;;;;;;5002424;28;20022;-64
2022/03/22 08:05:15;;;;;;;5.55;2.97;;;22.40;39.80;;;;;;5002579;28;20391;-65
2022/03/22 08:07:41;;;;;;;6.25;2.95;;;22.40;39.90;;;;;;5002638;28;20052;-63
2022/03/22 08:10:07;;;;;;;5.57;2.92;;;22.50;39.80;;;;;;5002290;28;20120;-66
2022/03/22 08:12:33;;;;;;;5.53;3.25;;;22.50;39.80;;;;;;5002105;28;20033;-65
2022/03/22 08:14:58;;;;;;;5.00;3.08;;;22.50;39.80;;;;;;5005382;28;20350;-66
2022/03/22 08:17:24;;;;;;;4.60;2.83;;;22.50;39.80;;;;;;5002431;28;20021;-65
2022/03/22 08:19:49;;;;;;;4.28;2.72;;;22.50;39.80;;;;;;5005481;28;20022;-66
2022/03/22 08:22:15;;;;;;;5.05;2.80;;;22.50;39.70;;;;;;4999437;28;20029;-66
2022/03/22 08:24:41;;;;;;;4.90;2.45;;;22.50;39.80;;;;;;4996938;28;20034;-67
2022/03/22 08:27:07;;;;;;;4.35;2.80;;;22.50;39.80;;;;;;5002806;28;20120;-66
2022/03/22 08:29:35;;;;;;;4.07;2.80;;;22.60;39.80;;;;;;5000097;28;20026;-65
2022/03/22 08:32:00;;;;;;;4.80;2.88;;;22.60;39.70;;;;;;5001389;28;20049;-67
2022/03/22 08:34:26;;;;;;;3.10;2.33;;;22.60;39.70;;;;;;5000231;28;20022;-66
2022/03/22 08:36:52;;;;;;;3.90;2.97;;;22.60;40.30;;;;;;4999162;28;20137;-66
2022/03/22 08:39:18;;;;;;;4.22;2.58;;;22.60;39.80;;;;;;4999538;28;20109;-66
2022/03/22 08:41:43;;;;;;;3.65;2.10;;;22.60;39.80;;;;;;5004551;28;20132;-66
2022/03/22 08:44:09;;;;;;;3.20;1.90;;;22.60;39.80;;;;;;4999446;28;20033;-67
2022/03/22 08:46:35;;;;;;;3.15;1.80;;;22.60;40.00;;;;;;5000138;28;20508;-63
2022/03/22 08:49:00;;;;;;;2.97;1.80;;;22.70;40.10;;;;;;5001004;28;20363;-65
2022/03/22 08:51:26;;;;;;;3.05;1.85;;;22.70;40.30;;;;;;5003962;28;20026;-64
2022/03/22 08:53:54;;;;;;;3.30;2.05;;;22.70;40.30;;;;;;5000017;28;20092;-66
2022/03/22 08:56:22;;;;;;;3.00;2.05;;;22.70;40.30;;;;;;4999046;28;20030;-62
2022/03/22 08:58:51;;;;;;;3.25;2.00;;;22.70;40.30;;;;;;5002054;28;20037;-66
2022/03/22 09:01:17;;;;;;;3.47;2.13;;;22.80;40.40;;;;;;5001018;28;20072;-65
2022/03/22 09:03:43;;;;;;;3.10;1.90;;;22.80;40.40;;;;;;5000860;28;20056;-66
2022/03/22 09:06:09;;;;;;;3.50;2.10;;;22.80;40.40;;;;;;4996979;28;21308;-64
2022/03/22 09:08:40;;;;;;;3.38;1.95;;;22.90;40.50;;;;;;4991883;28;20536;-66
2022/03/22 09:11:08;;;;;;;2.83;1.80;;;22.90;40.40;;;;;;5002355;28;20164;-66
2022/03/22 09:13:34;;;;;;;3.27;1.90;;;22.90;40.20;;;;;;4998424;28;20165;-64
2022/03/22 09:16:01;;;;;;;2.90;1.70;;;22.90;40.40;;;;;;4997389;28;20060;-66
2022/03/22 09:18:27;;;;;;;3.35;1.80;;;22.90;40.40;;;;;;5003486;28;20458;-67
2022/03/22 09:20:53;;;;;;;3.25;1.95;;;22.90;40.30;;;;;;5017334;28;20062;-62
2022/03/22 09:23:19;;;;;;;3.25;2.10;;;22.90;40.20;;;;;;4999709;28;20025;-66
2022/03/22 09:25:46;;;;;;;3.20;1.90;;;22.90;40.20;;;;;;4997297;28;20034;-66
2022/03/22 09:28:12;;;;;;;2.53;1.70;;;23.00;40.50;;;;;;4997008;28;20037;-66
2022/03/22 09:30:39;;;;;;;2.75;1.85;;;23.00;40.40;;;;;;5001824;28;20592;-65
2022/03/22 09:33:07;;;;;;;2.60;1.80;;;23.00;40.40;;;;;;5001650;28;20025;-66
2022/03/22 09:35:34;;;;;;;2.80;1.90;;;23.00;40.40;;;;;;4999314;28;20044;-67
2022/03/22 09:38:00;;;;;;;2.88;1.58;;;23.10;40.40;;;;;;5003021;28;20161;-67
2022/03/22 09:40:27;;;;;;;2.75;1.80;;;23.10;40.30;;;;;;5000142;28;20141;-66
2022/03/22 09:42:54;;;;;;;2.92;1.67;;;23.10;40.20;;;;;;5000006;28;20470;-66
2022/03/22 09:45:26;;;;;;;3.30;1.77;;;23.10;40.20;;;;;;4999702;28;20510;-62
2022/03/22 09:47:53;;;;;;;3.65;1.92;;;23.10;40.20;;;;;;5001302;28;20041;-67
2022/03/22 09:50:20;;;;;;;3.10;1.70;;;23.20;40.20;;;;;;4992597;28;20041;-66
2022/03/22 09:52:45;;;;;;;2.45;1.77;;;23.20;40.20;;;;;;5002913;28;20029;-66
2022/03/22 09:55:13;;;;;;;3.00;1.90;;;23.20;40.20;;;;;;4998228;28;20025;-67
2022/03/22 09:57:38;;;;;;;3.22;1.85;;;23.20;40.10;;;;;;5000647;28;20045;-66
2022/03/22 10:00:09;;;;;;;3.20;1.75;;;23.20;40.10;;;;;;5000542;28;20084;-67
2022/03/22 10:02:35;;;;;;;2.92;1.70;;;23.20;40.10;;;;;;4998135;28;20145;-67
2022/03/22 10:05:02;;;;;;;3.58;2.20;;;23.20;40.40;;;;;;4997646;28;20036;-69
2022/03/22 10:07:28;;;;;;;4.25;2.33;;;23.20;39.90;;;;;;5001494;28;20041;-64
2022/03/22 10:09:56;;;;;;;3.78;2.20;;;23.30;39.70;;;;;;4996159;28;20553;-68
2022/03/22 10:12:38;;;;;;;3.10;2.20;;;23.30;39.50;;;;;;5000540;28;20064;-67
2022/03/22 10:15:31;;;;;;;4.18;2.40;;;23.30;39.40;;;;;;5001234;28;20026;-67
2022/03/22 10:18:08;;;;;;;4.55;2.50;;;23.40;39.40;;;;;;4999333;28;20145;-66
2022/03/22 10:20:36;;;;;;;3.63;2.20;;;23.40;39.50;;;;;;5001995;28;20018;-66
2022/03/22 10:23:03;;;;;;;3.53;2.20;;;23.40;39.40;;;;;;4994489;28;20470;-65
2022/03/22 10:25:33;;;;;;;4.40;2.25;;;23.30;39.40;;;;;;5019013;28;20465;-65
2022/03/22 10:28:02;;;;;;;4.50;2.50;;;23.40;39.50;;;;;;5006656;28;20441;-65
2022/03/22 10:30:29;;;;;;;3.30;2.10;;;23.40;39.30;;;;;;5006438;28;20073;-67
2022/03/22 10:32:55;;;;;;;3.83;2.42;;;23.40;39.30;;;;;;5001920;28;20025;-67
2022/03/22 10:35:29;;;;;;;3.67;2.42;;;23.40;39.80;;;;;;5006074;28;20144;-67
2022/03/22 10:38:06;;;;;;;3.40;2.30;;;23.40;39.30;;;;;;5006316;28;20036;-66
2022/03/22 10:40:34;;;;;;;4.13;2.50;;;23.40;39.20;;;;;;4998289;28;20053;-66
2022/03/22 10:43:13;;;;;;;3.53;2.40;;;23.40;39.30;;;;;;5009293;28;20029;-66
2022/03/22 10:46:02;;;;;;;3.42;2.40;;;23.40;39.20;;;;;;5005846;28;20053;-67
2022/03/22 10:48:30;;;;;;;3.58;2.33;;;23.40;39.30;;;;;;5012696;28;20082;-62
2022/03/22 10:50:59;;;;;;;3.40;2.15;;;23.40;39.20;;;;;;5004648;28;20394;-67
2022/03/22 10:53:26;;;;;;;;;;;23.40;39.20;;;;;;5004616;28;20053;-66
2022/03/22 10:55:54;;;;;;;4.28;2.28;;;23.40;39.30;;;;;;4998310;28;20187;-67
2022/03/22 10:58:25;;;;;;;3.55;2.15;;;23.40;39.30;;;;;;5001845;28;20135;-67
2022/03/22 11:00:51;;;;;;;3.42;2.10;;;23.40;39.40;;;;;;5004880;28;20502;-67
2022/03/22 11:03:18;;;;;;;3.05;2.22;;;23.40;39.40;;;;;;5002407;28;20469;-61
2022/03/22 11:05:50;;;;;;;2.85;2.05;;;23.50;39.40;;;;;;5005766;28;20029;-65
2022/03/22 11:08:23;;;;;;;4.07;2.40;;;23.50;39.50;;;;;;5003200;28;20037;-65
2022/03/22 11:10:49;;;;;;;3.83;2.13;;;23.50;39.40;;;;;;5000418;28;20402;-66
2022/03/22 11:13:15;;;;;;;3.53;2.10;;;23.50;39.40;;;;;;5003405;28;20037;-66
2022/03/22 11:15:44;;;;;;;3.50;2.30;;;23.50;39.30;;;;;;5005414;28;20034;-66
2022/03/22 11:18:11;;;;;;;4.32;2.80;;;23.50;39.40;;;;;;5003058;28;20596;-65
2022/03/22 11:20:47;;;;;;;3.28;2.30;;;23.50;39.40;;;;;;5005245;28;20110;-62
2022/03/22 11:23:12;;;;;;;4.18;2.60;;;23.50;39.40;;;;;;5003446;28;20431;-64
2022/03/22 11:25:38;;;;;;;2.90;2.17;;;23.50;39.40;;;;;;5001295;28;20049;-66
2022/03/22 11:28:09;;;;;;;3.17;2.20;;;23.50;39.40;;;;;;5002143;28;20026;-66
2022/03/22 11:30:40;;;;;;;2.90;2.00;;;23.50;39.40;;;;;;5016165;28;20139;-64
2022/03/22 11:35:54;;;;;;;3.88;2.00;;;23.50;39.40;;;;;;4998631;28;20107;-63
2022/03/22 11:38:40;;;;;;;3.70;2.20;;;23.50;39.40;;;;;;5017448;28;20364;-65
2022/03/22 11:44:32;;;;;;;3.08;2.20;;;23.50;39.40;;;;;;4999165;28;20791;-61
2022/03/22 11:47:05;;;;;;;3.65;2.30;;;23.50;39.30;;;;;;5001426;28;20034;-64
2022/03/22 11:49:47;;;;;;;3.67;2.25;;;23.50;39.30;;;;;;4999587;28;20112;-64
2022/03/22 11:52:13;;;;;;;3.00;2.03;;;23.50;39.30;;;;;;5002179;28;20615;-62
2022/03/22 11:54:39;;;;;;;2.72;1.90;;;23.50;39.30;;;;;;5003231;28;20026;-64
2022/03/22 11:57:06;;;;;;;3.40;2.30;;;23.50;39.30;;;;;;4998222;28;20042;-64
2022/03/22 11:59:43;;;;;;;3.05;2.10;;;23.50;39.20;;;;;;5002415;28;20036;-67
2022/03/22 12:02:17;;;;;;;3.42;2.05;;;23.50;39.20;;;;;;5011042;28;20159;-67
2022/03/22 12:04:57;;;;;;;3.50;1.95;;;23.50;39.30;;;;;;5008226;28;20530;-66
2022/03/22 12:07:28;;;;;;;2.90;1.83;;;23.50;39.30;;;;;;5011052;28;20424;-64
2022/03/22 12:10:15;;;;;;;3.25;2.00;;;23.50;39.40;;;;;;5003391;28;20022;-66
2022/03/22 12:12:43;;;;;;;3.20;2.05;;;23.50;39.40;;;;;;4998143;28;20033;-66
2022/03/22 12:15:11;;;;;;;3.33;2.00;;;23.50;39.40;;;;;;5032069;28;20030;-67
2022/03/22 12:17:38;;;;;;;2.92;1.95;;;23.50;39.40;;;;;;5014181;28;20026;-66
2022/03/22 12:20:11;;;;;;;3.47;2.17;;;23.50;39.40;;;;;;5001429;28;20034;-67
2022/03/22 12:22:48;;;;;;;3.08;2.00;;;23.50;39.30;;;;;;5006133;28;20116;-65
2022/03/22 12:25:17;;;;;;;2.75;1.98;;;23.60;39.40;;;;;;5012005;28;20036;-65
2022/03/22 12:28:11;;;;;;;2.67;2.00;;;23.60;39.40;;;;;;5012078;28;20091;-66
2022/03/22 12:30:39;;;;;;;2.72;1.95;;;23.60;39.40;;;;;;5003205;28;20388;-66
2022/03/22 12:33:11;;;;;;;3.17;1.98;;;23.70;39.40;;;;;;5004881;28;20029;-62
2022/03/22 12:35:37;;;;;;;3.88;2.30;;;23.70;39.40;;;;;;5007958;28;20044;-66
2022/03/22 12:38:04;;;;;;;2.78;1.92;;;23.70;39.40;;;;;;5022938;28;20026;-62
2022/03/22 12:40:30;;;;;;;2.65;1.55;;;23.70;39.40;;;;;;5012833;28;20030;-66
2022/03/22 12:42:57;;;;;;;2.63;1.70;;;23.70;39.40;;;;;;5014882;28;20106;-67
2022/03/22 12:45:24;;;;;;;2.55;1.70;;;23.70;39.40;;;;;;5009422;28;20040;-67
2022/03/22 12:47:51;;;;;;;5.28;2.13;;;23.70;39.40;;;;;;5000631;28;20165;-66
2022/03/22 12:50:18;;;;;;;3.63;2.25;;;23.70;39.30;;;;;;4998915;28;20033;-63
2022/03/22 12:52:44;;;;;;;3.33;2.03;;;23.80;39.40;;;;;;4999130;28;20037;-66
2022/03/22 12:55:13;;;;;;;3.00;1.90;;;23.80;39.40;;;;;;5001861;28;20035;-63
2022/03/22 12:57:44;;;;;;;2.90;1.70;;;23.80;39.40;;;;;;5000498;28;20030;-66
2022/03/22 13:00:10;;;;;;;2.80;1.70;;;23.80;39.50;;;;;;4999727;28;20513;-63
2022/03/22 13:02:39;;;;;;;3.17;1.77;;;23.80;39.60;;;;;;4999060;28;20091;-63
2022/03/22 13:05:06;;;;;;;3.20;2.10;;;23.80;39.50;;;;;;4999470;28;20061;-66
2022/03/22 13:07:35;;;;;;;2.88;1.85;;;23.90;39.60;;;;;;4999676;28;20288;-63
2022/03/22 13:12:46;;;;;;;2.53;1.70;;;23.80;39.50;;;;;;4998959;28;20187;-66
2022/03/22 13:15:17;;;;;;;2.85;1.80;;;23.90;39.50;;;;;;4997910;28;20030;-67
2022/03/22 13:17:48;;;;;;;3.42;1.75;;;23.90;39.40;;;;;;4998523;28;20148;-66
2022/03/22 13:20:21;;;;;;;2.40;1.58;;;23.90;39.50;;;;;;5002135;28;20036;-65
2022/03/22 13:22:54;;;;;;;2.50;1.80;;;23.90;39.50;;;;;;5001204;28;20509;-62
2022/03/22 13:25:34;;;;;;;2.90;1.90;;;23.90;39.50;;;;;;5001717;28;20118;-66
2022/03/22 13:28:15;;;;;;;2.83;1.50;;;23.90;39.40;;;;;;4998827;28;20030;-67
2022/03/22 13:30:46;;;;;;;2.97;1.60;;;24.00;39.50;;;;;;5003766;28;20038;-65